Rosalia, WA

1:44 PM PDT on July 31, 2015 (GMT -0700)
The Palouse in Plaza | | Change Station
CLOSE
Current Station
Personal Weather Station
Location: Rosalia, WA
Elevation: 2470 ft
Nearby Weather Stations

Elev 2470 ft 47.33 °N, 117.36 °W | Updated 9 seconds ago

Clear
Clear
96.3 °F
Feels Like 91 °F
N
10.7
Wind Variable Wind from WSW
Gusts 15.0 mph

Today
High -- | Low -- °F
--% Chance of Precip.
Yesterday
High -- | Low -- °F
Precip. -- in
5:26 AM 8:24 PM
Full, 100% visible
Pressure 30.01 in
Visibility 10.0 miles
Clouds Few 30000 ft
Heat Index 91 °F
Dew Point 31 °F
Humidity 10%
Rainfall 0.00 in
Snow Depth Not available.
UV 8.0 out of 12
Pollen 6.30 out of 12
Air Quality Not available.
Flu Activity Not available.
METAR KGEG 311953Z 26004KT 10SM FEW300 36/01 A3008 RMK AO2 SLP161 T03560006

More Conditions Fewer Conditions

Pressure 30.01 in
Visibility 10.0 miles
Clouds Few 30000 ft
Heat Index 91 °F
Dew Point 31 °F
Humidity 10%
Rainfall 0.00 in
Snow Depth Not available.
UV 8.0 out of 12
Pollen 6.30 out of 12
Air Quality Not available.
Flu Activity Not available.
METAR KGEG 311953Z 26004KT 10SM FEW300 36/01 A3008 RMK AO2 SLP161 T03560006

More Conditions Fewer Conditions

10-Day Weather Forecast

×

Almanac

Astronomy

Jul. 31, 2015 Rise Set
Actual Time
Civil Twilight
Nautical Twilight
Astronomical Twilight
Moon
Length of Visible Light
Length of Day
Tomorrow will be .
, % of the Moon is Illuminated

Today's Extremes

State Highs State Lows

Community

WunderPhotos

Upload Photos

1,842,737 photos uploaded!

WunderBlogs® & News

Nearby

Air Quality

  Air Quality AQ Index Pollutant
Not available.

Snow Depth

Station Depth Elevation

Earthquake Activity

City Distance Mag. Time & Date
Minimum magnitude displayed is 2.5.

Coastal Water Temperatures

Place Temperature

Stations

Nearby Weather Stations

Station Location Temp. Windchill Dew Point Humidity Wind Precip. Elev Updated Type